createdAt,value
2022-12-29T00:01:59.988Z,94858.56
2022-12-29T00:04:26.540Z,94859.66
2022-12-29T00:06:54.355Z,94852.47
2022-12-29T00:09:21.352Z,94849.31
2022-12-29T00:11:47.945Z,94843.44
2022-12-29T00:14:33.353Z,94843.25
2022-12-29T00:16:59.929Z,94832.06
2022-12-29T00:19:45.052Z,94841.50
2022-12-29T00:22:32.405Z,94838.56
2022-12-29T00:25:02.351Z,94827.47
2022-12-29T00:27:48.859Z,94827.78
2022-12-29T00:30:39.544Z,94831.47
2022-12-29T00:33:29.100Z,94826.78
2022-12-29T00:36:01.563Z,94821.44
2022-12-29T00:38:50.859Z,94822.97
2022-12-29T00:41:36.109Z,94822.78
2022-12-29T00:44:10.993Z,94817.00
2022-12-29T00:46:39.189Z,94819.22
2022-12-29T00:49:26.231Z,94819.75
2022-12-29T00:51:53.183Z,94822.38
2022-12-29T00:54:19.767Z,94821.50
2022-12-29T00:56:51.333Z,94815.97
2022-12-29T00:59:19.429Z,94824.22
2022-12-29T01:01:47.654Z,94821.28
2022-12-29T01:04:15.002Z,94816.09
2022-12-29T01:06:42.363Z,94821.78
2022-12-29T01:09:35.251Z,94820.38
2022-12-29T01:12:01.986Z,94830.13
2022-12-29T01:14:29.025Z,94830.13
2022-12-29T01:16:56.428Z,94829.41
2022-12-29T01:19:23.817Z,94832.88
2022-12-29T01:21:50.911Z,94840.00
2022-12-29T01:24:20.368Z,94839.78
2022-12-29T01:26:47.342Z,94844.38
2022-12-29T01:29:14.281Z,94846.31
2022-12-29T01:31:40.977Z,94842.94
2022-12-29T01:34:09.162Z,94851.50
2022-12-29T01:36:35.784Z,94850.78
2022-12-29T01:39:02.811Z,94848.84
2022-12-29T01:41:30.027Z,94850.78
2022-12-29T01:44:00.215Z,94848.25
2022-12-29T01:46:29.060Z,94849.34
2022-12-29T01:49:01.734Z,94843.56
2022-12-29T01:51:31.226Z,94847.22
2022-12-29T01:54:01.667Z,94835.81
2022-12-29T01:56:28.335Z,94840.09
2022-12-29T01:59:06.240Z,94842.53
2022-12-29T02:01:33.853Z,94850.53
2022-12-29T02:04:02.256Z,94833.47
2022-12-29T02:06:34.001Z,94836.31
2022-12-29T02:09:01.862Z,94833.69
2022-12-29T02:11:30.890Z,94826.22
2022-12-29T02:13:59.358Z,94823.69
2022-12-29T02:16:33.092Z,94825.53
2022-12-29T02:19:12.972Z,94833.97
2022-12-29T02:22:06.322Z,94829.59
2022-12-29T02:24:35.790Z,94834.69
2022-12-29T02:27:26.885Z,94817.59
2022-12-29T02:30:08.744Z,94815.59
2022-12-29T02:32:38.222Z,94805.31
2022-12-29T02:35:07.871Z,94818.13
2022-12-29T02:37:49.847Z,94808.22
2022-12-29T02:40:29.609Z,94801.84
2022-12-29T02:43:11.381Z,94803.00
2022-12-29T02:46:06.753Z,94800.81
2022-12-29T02:49:02.565Z,94788.31
2022-12-29T02:51:38.250Z,94797.13
2022-12-29T02:54:23.593Z,94799.28
2022-12-29T02:56:50.482Z,94789.22
2022-12-29T02:59:18.048Z,94789.84
2022-12-29T03:02:26.187Z,94788.44
2022-12-29T03:05:17.370Z,94791.66
2022-12-29T03:07:56.136Z,94779.84
2022-12-29T03:10:47.624Z,94778.09
2022-12-29T03:13:51.793Z,94779.84
2022-12-29T03:16:38.219Z,94777.97
2022-12-29T03:19:11.245Z,94769.63
2022-12-29T03:22:05.596Z,94772.88
2022-12-29T03:24:47.658Z,94771.72
2022-12-29T03:27:19.894Z,94774.97
2022-12-29T03:29:54.211Z,94774.84
2022-12-29T03:32:29.228Z,94762.47
2022-12-29T03:34:58.505Z,94766.16
2022-12-29T03:37:31.977Z,94762.34
2022-12-29T03:39:59.473Z,94762.56
2022-12-29T03:42:31.002Z,94753.16
2022-12-29T03:44:58.367Z,94756.50
2022-12-29T03:47:26.240Z,94752.81
2022-12-29T03:49:53.381Z,94753.50
2022-12-29T03:52:20.070Z,94745.06
2022-12-29T03:54:47.979Z,94746.09
2022-12-29T03:57:14.664Z,94749.81
2022-12-29T03:59:55.209Z,94749.44
2022-12-29T04:02:22.008Z,94750.13
2022-12-29T04:04:48.790Z,94756.19
2022-12-29T04:07:15.419Z,94755.81
2022-12-29T04:09:42.746Z,94754.31
2022-12-29T04:12:13.039Z,94745.50
2022-12-29T04:14:39.663Z,94748.75
2022-12-29T04:17:07.190Z,94751.41
2022-12-29T04:19:33.847Z,94749.00
2022-12-29T04:22:01.462Z,94750.13
2022-12-29T04:24:28.271Z,94747.69
2022-12-29T04:26:54.939Z,94746.75
2022-12-29T04:29:30.462Z,94748.41
2022-12-29T04:32:15.664Z,94734.56
2022-12-29T04:34:47.892Z,94743.25
2022-12-29T04:37:14.525Z,94729.31
2022-12-29T04:39:41.802Z,94726.41
2022-12-29T04:42:09.195Z,94736.63
2022-12-29T04:44:39.765Z,94739.41
2022-12-29T04:47:32.585Z,94731.56
2022-12-29T04:50:17.695Z,94725.38
2022-12-29T04:52:52.921Z,94726.19
2022-12-29T04:55:19.826Z,94729.31
2022-12-29T04:57:46.469Z,94734.19
2022-12-29T05:00:17.781Z,94725.06
2022-12-29T05:02:46.189Z,94731.19
2022-12-29T05:05:13.058Z,94737.00
2022-12-29T05:07:42.888Z,94731.66
2022-12-29T05:10:10.508Z,94742.09
2022-12-29T05:12:39.024Z,94755.88
2022-12-29T05:15:07.683Z,94759.50
2022-12-29T05:17:34.962Z,94764.97
2022-12-29T05:20:01.801Z,94758.13
2022-12-29T05:22:28.833Z,94762.50
2022-12-29T05:24:56.502Z,94765.41
2022-12-29T05:27:23.700Z,94759.13
2022-12-29T05:30:19.772Z,94759.34
2022-12-29T05:32:46.391Z,94756.66
2022-12-29T05:35:12.954Z,94754.44
2022-12-29T05:37:39.618Z,94753.53
2022-12-29T05:40:07.378Z,94752.84
2022-12-29T05:42:35.302Z,94739.97
2022-12-29T05:45:33.118Z,94744.72
2022-12-29T05:48:26.326Z,94740.34
2022-12-29T05:51:11.636Z,94745.44
2022-12-29T05:53:47.100Z,94748.34
2022-12-29T05:56:13.710Z,94742.31
2022-12-29T05:58:41.026Z,94749.31
2022-12-29T06:01:07.882Z,94740.00
2022-12-29T06:03:34.590Z,94737.63
2022-12-29T06:06:01.255Z,94733.00
2022-12-29T06:08:28.671Z,94732.50
2022-12-29T06:10:55.250Z,94738.09
2022-12-29T06:13:22.188Z,94735.53
2022-12-29T06:15:50.607Z,94729.50
2022-12-29T06:18:20.317Z,94728.22
2022-12-29T06:20:47.653Z,94739.38
2022-12-29T06:23:16.255Z,94744.63
2022-12-29T06:25:43.737Z,94750.88
2022-12-29T06:28:11.683Z,94751.28
2022-12-29T06:30:39.014Z,94751.06
2022-12-29T06:33:05.648Z,94755.19
2022-12-29T06:35:32.483Z,94752.66
2022-12-29T06:37:59.910Z,94747.06
2022-12-29T06:40:26.563Z,94755.44
2022-12-29T06:43:09.532Z,94766.13
2022-12-29T06:45:44.104Z,94767.53
2022-12-29T06:48:10.807Z,94761.38
2022-12-29T06:50:37.366Z,94768.47
2022-12-29T06:53:04.451Z,94771.25
2022-12-29T06:55:31.099Z,94771.25
2022-12-29T06:57:58.258Z,94770.22
2022-12-29T07:00:26.200Z,94777.63
2022-12-29T07:02:53.208Z,94764.66
2022-12-29T07:05:19.931Z,94766.16
2022-12-29T07:07:46.493Z,94768.22
2022-12-29T07:10:13.103Z,94781.47
2022-12-29T07:12:39.660Z,94778.81
2022-12-29T07:15:06.795Z,94786.22
2022-12-29T07:17:33.343Z,94784.63
2022-12-29T07:20:00.486Z,94792.63
2022-12-29T07:22:27.103Z,94794.13
2022-12-29T07:24:53.687Z,94793.91
2022-12-29T07:27:20.278Z,94805.72
2022-12-29T07:29:46.899Z,94799.13
2022-12-29T07:32:13.610Z,94797.97
2022-12-29T07:34:40.732Z,94809.06
2022-12-29T07:37:07.647Z,94803.06
2022-12-29T07:39:34.323Z,94801.44
2022-12-29T07:42:04.908Z,94803.84
2022-12-29T07:44:38.920Z,94801.41
2022-12-29T07:47:16.875Z,94811.88
2022-12-29T07:49:43.518Z,94806.59
2022-12-29T07:52:10.096Z,94806.19
2022-12-29T07:54:36.756Z,94803.63
2022-12-29T07:57:03.539Z,94802.97
2022-12-29T07:59:30.220Z,94811.13
2022-12-29T08:01:56.919Z,94796.28
2022-12-29T08:04:23.772Z,94805.63
2022-12-29T08:06:50.769Z,94797.09
2022-12-29T08:09:22.320Z,94794.47
2022-12-29T08:11:49.689Z,94804.66
2022-12-29T08:14:16.274Z,94803.81
2022-12-29T08:16:42.912Z,94799.81
2022-12-29T08:19:12.318Z,94808.97
2022-12-29T08:21:39.451Z,94800.72
2022-12-29T08:24:06.985Z,94806.81
2022-12-29T08:26:33.782Z,94796.78
2022-12-29T08:29:00.342Z,94800.50
2022-12-29T08:31:26.986Z,94801.44
2022-12-29T08:33:53.574Z,94815.84
2022-12-29T08:36:20.266Z,94811.75
2022-12-29T08:38:46.874Z,94808.25
2022-12-29T08:41:13.676Z,94819.28
2022-12-29T08:43:40.321Z,94822.66
2022-12-29T08:46:07.022Z,94821.56
2022-12-29T08:48:33.648Z,94818.81
2022-12-29T08:51:00.204Z,94825.06
2022-12-29T08:53:26.862Z,94818.69
2022-12-29T08:56:03.956Z,94820.13
2022-12-29T08:58:35.678Z,94815.28
2022-12-29T09:01:02.431Z,94833.41
2022-12-29T09:04:04.380Z,94825.97
2022-12-29T09:06:17.771Z,94828.44
2022-12-29T09:08:44.896Z,94824.31
2022-12-29T09:11:17.581Z,94838.88
2022-12-29T09:13:44.178Z,94835.88
2022-12-29T09:16:11.413Z,94847.00
2022-12-29T09:18:38.631Z,94839.25
2022-12-29T09:21:06.847Z,94838.53
2022-12-29T09:23:34.503Z,94846.25
2022-12-29T09:26:01.485Z,94840.69
2022-12-29T09:28:29.898Z,94842.66
2022-12-29T09:30:57.178Z,94843.72
2022-12-29T09:33:23.895Z,94838.38
2022-12-29T09:35:58.912Z,94840.94
2022-12-29T09:38:27.110Z,94844.75
2022-12-29T09:41:02.778Z,94835.00
2022-12-29T09:44:14.275Z,94832.22
2022-12-29T09:46:50.202Z,94828.50
2022-12-29T09:49:42.066Z,94823.75
2022-12-29T09:52:16.145Z,94823.03
2022-12-29T09:55:03.279Z,94825.06
2022-12-29T09:57:43.100Z,94806.88
2022-12-29T10:00:29.122Z,94819.91
2022-12-29T10:03:07.143Z,94825.44
2022-12-29T10:05:57.440Z,94827.06
2022-12-29T10:08:40.628Z,94828.03
2022-12-29T10:11:22.329Z,94837.91
2022-12-29T10:14:15.706Z,94836.66
2022-12-29T10:17:01.514Z,94826.16
2022-12-29T10:19:49.364Z,94832.63
2022-12-29T10:22:31.363Z,94820.47
2022-12-29T10:24:58.603Z,94809.16
2022-12-29T10:27:25.292Z,94812.66
2022-12-29T10:29:56.624Z,94807.75
2022-12-29T10:32:49.456Z,94804.16
2022-12-29T10:35:24.896Z,94803.03
2022-12-29T10:37:51.500Z,94797.41
2022-12-29T10:40:24.373Z,94784.81
2022-12-29T10:42:55.256Z,94783.56
2022-12-29T10:45:25.840Z,94781.88
2022-12-29T10:48:05.087Z,94771.63
2022-12-29T10:50:31.971Z,94758.72
2022-12-29T10:53:03.398Z,94758.34
2022-12-29T10:55:34.741Z,94762.50
2022-12-29T10:58:05.824Z,94759.91
2022-12-29T11:00:34.005Z,94762.41
2022-12-29T11:03:10.535Z,94759.13
2022-12-29T11:05:57.072Z,94752.69
2022-12-29T11:08:28.859Z,94750.38
2022-12-29T11:11:00.843Z,94757.81
2022-12-29T11:13:34.997Z,94751.81
2022-12-29T11:16:05.327Z,94751.22
2022-12-29T11:18:38.480Z,94742.19
2022-12-29T11:21:08.579Z,94745.22
2022-12-29T11:23:41.029Z,94733.81
2022-12-29T11:26:16.540Z,94742.75
2022-12-29T11:28:46.168Z,94741.47
2022-12-29T11:31:17.640Z,94736.28
2022-12-29T11:33:44.218Z,94733.88
2022-12-29T11:36:37.313Z,94736.13
2022-12-29T11:39:10.450Z,94731.28
2022-12-29T11:41:40.418Z,94732.72
2022-12-29T11:44:07.313Z,94730.50
2022-12-29T11:46:37.901Z,94732.00
2022-12-29T11:49:05.240Z,94727.84
2022-12-29T11:51:35.285Z,94729.34
2022-12-29T11:54:05.276Z,94721.47
2022-12-29T11:56:42.148Z,94723.78
2022-12-29T11:59:37.623Z,94709.56
2022-12-29T12:02:19.899Z,94714.09
2022-12-29T12:04:46.684Z,94721.38
2022-12-29T12:07:36.165Z,94714.41
2022-12-29T12:10:08.134Z,94709.50
2022-12-29T12:12:39.627Z,94715.09
2022-12-29T12:15:07.068Z,94704.03
2022-12-29T12:17:54.977Z,94707.31
2022-12-29T12:20:27.467Z,94712.50
2022-12-29T12:22:59.954Z,94708.63
2022-12-29T12:25:43.948Z,94711.78
2022-12-29T12:28:30.509Z,94709.22
2022-12-29T12:31:05.751Z,94698.84
2022-12-29T12:33:39.985Z,94694.63
2022-12-29T12:36:29.759Z,94698.22
2022-12-29T12:39:02.129Z,94696.22
2022-12-29T12:41:34.460Z,94690.41
2022-12-29T12:44:13.559Z,94690.38
2022-12-29T12:46:55.156Z,94689.34
2022-12-29T12:49:59.185Z,94693.16
2022-12-29T12:52:43.912Z,94680.56
2022-12-29T12:55:37.947Z,94683.50
2022-12-29T12:58:39.028Z,94682.47
2022-12-29T13:01:19.188Z,94673.34
2022-12-29T13:04:16.513Z,94684.63
2022-12-29T13:06:55.519Z,94683.03
2022-12-29T13:09:25.127Z,94670.09
2022-12-29T13:12:19.384Z,94674.00
2022-12-29T13:15:14.474Z,94673.56
2022-12-29T13:17:50.260Z,94673.38
2022-12-29T13:20:46.827Z,94675.53
2022-12-29T13:23:36.794Z,94667.13
2022-12-29T13:26:22.001Z,94657.44
2022-12-29T13:29:05.006Z,94665.19
2022-12-29T13:31:44.166Z,94663.38
2022-12-29T13:34:13.669Z,94663.94
2022-12-29T13:36:50.521Z,94663.00
2022-12-29T13:39:22.914Z,94667.69
2022-12-29T13:41:55.034Z,94653.75
2022-12-29T13:44:33.260Z,94659.25
2022-12-29T13:47:16.339Z,94657.31
2022-12-29T13:49:44.453Z,94656.63
2022-12-29T13:52:57.314Z,94657.44
2022-12-29T13:55:30.387Z,94667.66
2022-12-29T13:58:08.508Z,94663.34
2022-12-29T14:00:47.233Z,94663.00
2022-12-29T14:03:40.386Z,94653.84
2022-12-29T14:06:26.915Z,94652.97
2022-12-29T14:08:57.672Z,94666.09
2022-12-29T14:11:32.108Z,94670.66
2022-12-29T14:14:00.218Z,94677.91
2022-12-29T14:16:35.850Z,94681.75
2022-12-29T14:19:15.953Z,94678.19
2022-12-29T14:21:51.014Z,94674.03
2022-12-29T14:24:35.882Z,94677.13
2022-12-29T14:27:22.434Z,94673.91
2022-12-29T14:29:50.725Z,94670.69
2022-12-29T14:32:26.334Z,94672.72
2022-12-29T14:35:01.068Z,94678.31
2022-12-29T14:37:35.037Z,94677.66
2022-12-29T14:40:27.465Z,94684.47
2022-12-29T14:42:56.699Z,94683.66
2022-12-29T14:45:30.199Z,94696.56
2022-12-29T14:47:57.826Z,94690.09
2022-12-29T14:50:44.987Z,94689.44
2022-12-29T14:53:47.823Z,94691.06
2022-12-29T14:56:18.015Z,94685.25
2022-12-29T14:58:50.736Z,94681.84
2022-12-29T15:01:46.292Z,94692.53
2022-12-29T15:04:19.252Z,94693.66
2022-12-29T15:06:48.151Z,94695.44
2022-12-29T15:09:18.560Z,94693.16
2022-12-29T15:11:50.737Z,94690.44
2022-12-29T15:14:29.214Z,94689.63
2022-12-29T15:16:55.906Z,94697.19
2022-12-29T15:19:24.059Z,94689.44
2022-12-29T15:21:51.002Z,94700.75
2022-12-29T15:24:17.889Z,94698.19
2022-12-29T15:26:47.926Z,94689.00
2022-12-29T15:29:40.478Z,94689.13
2022-12-29T15:32:16.400Z,94687.19
2022-12-29T15:34:47.777Z,94694.16
2022-12-29T15:37:29.403Z,94697.66
2022-12-29T15:39:56.586Z,94688.94
2022-12-29T15:42:34.827Z,94691.31
2022-12-29T15:45:11.565Z,94693.75
2022-12-29T15:47:40.538Z,94681.84
2022-12-29T15:50:16.032Z,94690.34
2022-12-29T15:52:42.680Z,94688.13
2022-12-29T15:55:21.039Z,94684.13
2022-12-29T15:57:47.674Z,94700.22
2022-12-29T16:00:33.003Z,94700.72
2022-12-29T16:03:03.083Z,94706.72
2022-12-29T16:05:39.063Z,94703.84
2022-12-29T16:08:30.040Z,94709.09
2022-12-29T16:10:57.300Z,94708.38
2022-12-29T16:13:35.513Z,94713.66
2022-12-29T16:16:19.268Z,94714.97
2022-12-29T16:18:50.490Z,94717.75
2022-12-29T16:21:30.846Z,94731.38
2022-12-29T16:24:03.821Z,94727.88
2022-12-29T16:26:30.588Z,94721.94
2022-12-29T16:29:00.687Z,94729.78
2022-12-29T16:31:50.191Z,94727.16
2022-12-29T16:34:31.959Z,94719.94
2022-12-29T16:37:01.581Z,94720.91
2022-12-29T16:39:40.302Z,94736.69
2022-12-29T16:42:50.587Z,94741.88
2022-12-29T16:45:24.178Z,94734.91
2022-12-29T16:48:06.015Z,94736.25
2022-12-29T16:50:34.833Z,94742.34
2022-12-29T16:53:02.141Z,94750.53
2022-12-29T16:55:28.697Z,94742.00
2022-12-29T16:57:57.364Z,94743.31
2022-12-29T17:00:27.009Z,94741.84
2022-12-29T17:02:58.768Z,94740.75
2022-12-29T17:05:25.962Z,94743.25
2022-12-29T17:07:53.752Z,94738.16
2022-12-29T17:10:20.399Z,94730.88
2022-12-29T17:12:49.290Z,94733.44
2022-12-29T17:15:22.585Z,94736.28
2022-12-29T17:17:51.876Z,94730.63
2022-12-29T17:20:20.289Z,94735.97
2022-12-29T17:22:47.859Z,94733.38
2022-12-29T17:25:20.008Z,94730.63
2022-12-29T17:27:48.515Z,94730.53
2022-12-29T17:30:18.232Z,94732.66
2022-12-29T17:32:51.554Z,94738.63
2022-12-29T17:35:20.495Z,94737.22
2022-12-29T17:37:48.071Z,94731.63
2022-12-29T17:40:20.974Z,94725.50
2022-12-29T17:42:54.685Z,94741.19
2022-12-29T17:45:26.949Z,94729.19
2022-12-29T17:47:54.122Z,94730.44
2022-12-29T17:50:25.730Z,94727.31
2022-12-29T17:52:57.537Z,94741.56
2022-12-29T17:55:32.775Z,94748.47
2022-12-29T17:58:16.874Z,94750.66
2022-12-29T18:00:43.750Z,94747.28
2022-12-29T18:03:23.485Z,94749.25
2022-12-29T18:05:50.413Z,94752.22
2022-12-29T18:08:17.080Z,94758.91
2022-12-29T18:10:44.472Z,94757.22
2022-12-29T18:13:24.101Z,94752.06
2022-12-29T18:15:51.603Z,94763.41
2022-12-29T18:18:20.918Z,94763.78
2022-12-29T18:20:49.483Z,94760.69
2022-12-29T18:23:22.489Z,94755.16
2022-12-29T18:26:05.867Z,94754.59
2022-12-29T18:28:32.621Z,94762.09
2022-12-29T18:31:01.613Z,94763.34
2022-12-29T18:33:28.390Z,94760.16
2022-12-29T18:35:57.845Z,94760.59
2022-12-29T18:38:24.939Z,94763.00
2022-12-29T18:40:54.904Z,94759.59
2022-12-29T18:43:22.891Z,94753.44
2022-12-29T18:45:49.612Z,94749.47
2022-12-29T18:48:18.267Z,94761.22
2022-12-29T18:50:45.656Z,94762.59
2022-12-29T18:53:20.580Z,94765.63
2022-12-29T18:55:47.225Z,94762.28
2022-12-29T18:58:13.885Z,94766.19
2022-12-29T19:00:40.946Z,94772.38
2022-12-29T19:03:07.697Z,94768.41
2022-12-29T19:05:38.975Z,94757.81
2022-12-29T19:08:07.105Z,94747.31
2022-12-29T19:10:34.570Z,94749.78
2022-12-29T19:13:01.815Z,94763.34
2022-12-29T19:15:31.294Z,94762.75
2022-12-29T19:20:48.517Z,94769.69
2022-12-29T19:23:17.737Z,94764.84
2022-12-29T19:25:45.643Z,94757.28
2022-12-29T19:28:32.527Z,94756.22
2022-12-29T19:31:02.495Z,94768.88
2022-12-29T19:33:29.534Z,94767.75
2022-12-29T19:36:01.523Z,94773.28
2022-12-29T19:38:28.218Z,94773.16
2022-12-29T19:40:54.825Z,94774.31
2022-12-29T19:43:21.447Z,94776.84
2022-12-29T19:45:48.022Z,94777.94
2022-12-29T19:48:17.609Z,94779.06
2022-12-29T19:50:45.184Z,94777.38
2022-12-29T19:53:12.706Z,94774.88
2022-12-29T19:55:46.656Z,94779.41
2022-12-29T19:58:13.799Z,94773.50
2022-12-29T20:00:42.525Z,94771.44
2022-12-29T20:03:09.493Z,94771.19
2022-12-29T20:05:36.363Z,94761.75
2022-12-29T20:08:03.046Z,94758.56
2022-12-29T20:10:29.772Z,94754.34
2022-12-29T20:12:56.376Z,94750.03
2022-12-29T20:15:22.932Z,94756.50
2022-12-29T20:20:36.190Z,94752.53
2022-12-29T20:23:02.801Z,94758.75
2022-12-29T20:25:46.616Z,94770.78
2022-12-29T20:28:15.560Z,94754.94
2022-12-29T20:30:42.819Z,94753.00
2022-12-29T20:33:09.418Z,94749.25
2022-12-29T20:35:36.869Z,94751.91
2022-12-29T20:38:04.751Z,94750.56
2022-12-29T20:40:31.396Z,94749.09
2022-12-29T20:42:58.030Z,94745.66
2022-12-29T20:45:24.949Z,94746.38
2022-12-29T20:47:51.596Z,94733.97
2022-12-29T20:50:18.183Z,94732.84
2022-12-29T20:52:47.759Z,94736.53
2022-12-29T20:55:14.624Z,94742.03
2022-12-29T21:00:30.333Z,94749.22
2022-12-29T21:02:58.274Z,94735.53
2022-12-29T21:05:26.182Z,94730.44
2022-12-29T21:07:54.046Z,94732.38
2022-12-29T21:10:21.594Z,94727.41
2022-12-29T21:12:48.538Z,94729.19
2022-12-29T21:15:15.736Z,94726.03
2022-12-29T21:17:43.773Z,94719.94
2022-12-29T21:20:19.583Z,94715.56
2022-12-29T21:22:48.222Z,94721.91
2022-12-29T21:25:14.859Z,94727.94
2022-12-29T21:27:44.548Z,94732.28
2022-12-29T21:30:12.016Z,94732.84
2022-12-29T21:32:39.874Z,94731.25
2022-12-29T21:35:07.971Z,94727.66
2022-12-29T21:37:35.708Z,94731.44
2022-12-29T21:40:02.869Z,94735.38
2022-12-29T21:42:30.231Z,94747.56
2022-12-29T21:45:20.201Z,94749.44
2022-12-29T21:48:06.419Z,94759.44
2022-12-29T21:50:33.145Z,94761.34
2022-12-29T21:52:59.698Z,94763.00
2022-12-29T21:55:26.271Z,94773.34
2022-12-29T21:58:11.504Z,94774.06
2022-12-29T22:00:56.617Z,94772.31
2022-12-29T22:03:41.793Z,94757.97
2022-12-29T22:06:30.194Z,94762.97
2022-12-29T22:09:15.490Z,94761.97
2022-12-29T22:12:00.669Z,94765.25
2022-12-29T22:14:27.207Z,94768.59
2022-12-29T22:16:53.856Z,94776.47
2022-12-29T22:19:20.456Z,94772.63
2022-12-29T22:21:47.070Z,94778.59
2022-12-29T22:24:13.707Z,94780.59
2022-12-29T22:26:40.286Z,94783.19
2022-12-29T22:29:06.943Z,94786.81
2022-12-29T22:31:33.886Z,94800.22
2022-12-29T22:34:02.470Z,94797.41
2022-12-29T22:36:29.792Z,94809.72
2022-12-29T22:38:56.546Z,94808.25
2022-12-29T22:41:23.629Z,94811.31
2022-12-29T22:43:50.225Z,94818.88
2022-12-29T22:46:16.863Z,94825.13
2022-12-29T22:48:43.684Z,94827.25
2022-12-29T22:51:10.272Z,94835.38
2022-12-29T22:53:36.894Z,94840.09
2022-12-29T22:56:09.284Z,94843.88
2022-12-29T22:58:40.239Z,94843.44
2022-12-29T23:01:06.916Z,94833.28
2022-12-29T23:03:33.808Z,94834.78
2022-12-29T23:06:02.672Z,94841.16
2022-12-29T23:08:32.381Z,94850.94
2022-12-29T23:10:59.072Z,94845.72
2022-12-29T23:13:25.712Z,94845.13
2022-12-29T23:15:52.449Z,94848.94
2022-12-29T23:18:19.167Z,94851.00
2022-12-29T23:20:48.186Z,94853.34
2022-12-29T23:23:35.739Z,94854.09
2022-12-29T23:26:02.434Z,94848.84
2022-12-29T23:28:29.043Z,94855.91
2022-12-29T23:30:55.614Z,94852.03
2022-12-29T23:33:22.248Z,94853.19
2022-12-29T23:35:48.807Z,94847.41
2022-12-29T23:38:15.548Z,94847.19
2022-12-29T23:40:42.125Z,94848.16
2022-12-29T23:43:08.745Z,94848.19
2022-12-29T23:45:36.205Z,94855.16
2022-12-29T23:48:02.838Z,94851.75
2022-12-29T23:50:29.699Z,94857.81
2022-12-29T23:52:56.298Z,94864.63
2022-12-29T23:55:22.912Z,94862.47
2022-12-29T23:57:49.556Z,94872.19
